createdAt,value
2018-09-29T00:01:55.529Z,102839.12
2018-09-29T00:04:23.609Z,102835.24
2018-09-29T00:06:51.724Z,102831.91
2018-09-29T00:09:19.870Z,102830.25
2018-09-29T00:11:47.950Z,102831.06
2018-09-29T00:14:16.005Z,102836.55
2018-09-29T00:16:44.068Z,102833.78
2018-09-29T00:19:12.154Z,102830.17
2018-09-29T00:21:40.220Z,102835.93
2018-09-29T00:24:08.276Z,102830.14
2018-09-29T00:26:36.366Z,102824.61
2018-09-29T00:29:04.539Z,102833.41
2018-09-29T00:31:32.597Z,102835.88
2018-09-29T00:34:00.681Z,102835.61
2018-09-29T00:36:28.741Z,102830.61
2018-09-29T00:38:56.795Z,102837.77
2018-09-29T00:41:24.864Z,102838.86
2018-09-29T00:43:52.929Z,102836.35
2018-09-29T00:46:21.001Z,102841.30
2018-09-29T00:48:49.097Z,102837.64
2018-09-29T00:51:17.157Z,102825.51
2018-09-29T00:53:45.222Z,102835.69
2018-09-29T00:56:13.321Z,102829.59
2018-09-29T00:58:41.373Z,102826.81
2018-09-29T01:01:09.441Z,102828.73
2018-09-29T01:03:37.498Z,102833.37
2018-09-29T01:06:05.558Z,102832.53
2018-09-29T01:08:33.617Z,102834.16
2018-09-29T01:11:01.697Z,102835.23
2018-09-29T01:13:29.768Z,102826.15
2018-09-29T01:15:57.822Z,102829.14
2018-09-29T01:18:25.907Z,102837.92
2018-09-29T01:20:53.966Z,102835.15
2018-09-29T01:23:22.043Z,102832.94
2018-09-29T01:25:50.089Z,102837.60
2018-09-29T01:28:18.149Z,102838.67
2018-09-29T01:30:46.200Z,102841.16
2018-09-29T01:33:14.287Z,102838.67
2018-09-29T01:35:42.355Z,102837.54
2018-09-29T01:38:10.413Z,102843.84
2018-09-29T01:40:38.465Z,102851.29
2018-09-29T01:43:06.742Z,102848.51
2018-09-29T01:45:34.801Z,102850.96
2018-09-29T01:48:02.976Z,102856.19
2018-09-29T01:50:31.034Z,102847.37
2018-09-29T01:52:59.221Z,102845.16
2018-09-29T01:55:27.285Z,102852.84
2018-09-29T01:57:55.364Z,102835.77
2018-09-29T02:00:23.437Z,102839.33
2018-09-29T02:02:51.501Z,102844.29
2018-09-29T02:05:19.569Z,102837.69
2018-09-29T02:07:47.654Z,102834.37
2018-09-29T02:10:15.713Z,102830.78
2018-09-29T02:12:43.781Z,102828.33
2018-09-29T02:15:11.841Z,102829.17
2018-09-29T02:17:39.929Z,102827.23
2018-09-29T02:20:08.050Z,102829.41
2018-09-29T02:22:36.169Z,102834.61
2018-09-29T02:25:04.233Z,102830.72
2018-09-29T02:27:32.297Z,102834.80
2018-09-29T02:30:00.364Z,102824.95
2018-09-29T02:32:28.441Z,102825.22
2018-09-29T02:34:56.493Z,102822.47
2018-09-29T02:37:24.558Z,102823.31
2018-09-29T02:39:52.654Z,102826.86
2018-09-29T02:42:20.733Z,102834.80
2018-09-29T02:44:48.826Z,102836.72
2018-09-29T02:47:16.885Z,102842.21
2018-09-29T02:49:45.029Z,102838.09
2018-09-29T02:52:13.107Z,102842.21
2018-09-29T02:54:41.161Z,102839.16
2018-09-29T02:57:09.344Z,102847.67
2018-09-29T02:59:37.653Z,102847.11
2018-09-29T03:02:05.789Z,102841.58
2018-09-29T03:04:33.868Z,102841.30
2018-09-29T03:07:01.942Z,102837.72
2018-09-29T03:09:30.010Z,102835.51
2018-09-29T03:11:58.077Z,102832.76
2018-09-29T03:14:26.149Z,102838.26
2018-09-29T03:16:54.196Z,102837.15
2018-09-29T03:19:22.278Z,102830.55
2018-09-29T03:21:50.358Z,102831.62
2018-09-29T03:24:18.421Z,102828.88
2018-09-29T03:26:46.481Z,102831.08
2018-09-29T03:29:14.541Z,102821.77
2018-09-29T03:31:42.857Z,102816.27
2018-09-29T03:34:10.702Z,102813.25
2018-09-29T03:36:38.776Z,102807.45
2018-09-29T03:39:08.572Z,102808.30
2018-09-29T03:41:36.850Z,102808.02
2018-09-29T03:44:04.937Z,102813.83
2018-09-29T03:46:32.998Z,102822.64
2018-09-29T03:49:01.078Z,102817.98
2018-09-29T03:51:29.126Z,102822.64
2018-09-29T03:53:57.323Z,102817.14
2018-09-29T03:56:25.389Z,102815.23
2018-09-29T03:58:53.451Z,102814.39
2018-09-29T04:01:21.520Z,102812.19
2018-09-29T04:03:49.626Z,102813.55
2018-09-29T04:06:17.681Z,102825.92
2018-09-29T04:08:45.754Z,102816.84
2018-09-29T04:11:13.842Z,102815.73
2018-09-29T04:13:41.978Z,102821.77
2018-09-29T04:16:10.006Z,102825.35
2018-09-29T04:18:38.118Z,102825.92
2018-09-29T04:21:06.289Z,102833.09
2018-09-29T04:23:34.349Z,102824.02
2018-09-29T04:26:02.423Z,102824.84
2018-09-29T04:28:30.496Z,102821.83
2018-09-29T04:30:58.559Z,102827.09
2018-09-29T04:33:26.644Z,102824.38
2018-09-29T04:35:54.702Z,102830.45
2018-09-29T04:38:22.774Z,102834.07
2018-09-29T04:40:50.881Z,102835.77
2018-09-29T04:43:19.000Z,102834.70
2018-09-29T04:45:47.071Z,102830.88
2018-09-29T04:48:15.165Z,102825.70
2018-09-29T04:50:43.234Z,102824.93
2018-09-29T04:53:11.298Z,102820.00
2018-09-29T04:55:39.372Z,102825.25
2018-09-29T04:58:07.447Z,102817.30
2018-09-29T05:00:35.518Z,102822.83
2018-09-29T05:03:03.569Z,102820.64
2018-09-29T05:05:31.624Z,102823.16
2018-09-29T05:07:59.676Z,102827.84
2018-09-29T05:10:27.798Z,102830.62
2018-09-29T05:12:55.849Z,102829.27
2018-09-29T05:15:23.936Z,102832.05
2018-09-29T05:17:52.013Z,102826.84
2018-09-29T05:20:20.070Z,102833.75
2018-09-29T05:22:48.129Z,102836.49
2018-09-29T05:25:16.183Z,102844.50
2018-09-29T05:27:44.248Z,102844.25
2018-09-29T05:30:12.323Z,102850.37
2018-09-29T05:32:40.392Z,102854.28
2018-09-29T05:35:08.497Z,102857.89
2018-09-29T05:37:36.562Z,102865.64
2018-09-29T05:40:04.668Z,102874.21
2018-09-29T05:42:32.761Z,102870.66
2018-09-29T05:45:00.868Z,102867.95
2018-09-29T05:47:28.930Z,102866.32
2018-09-29T05:49:57.017Z,102861.92
2018-09-29T05:52:25.069Z,102866.64
2018-09-29T05:54:53.127Z,102865.03
2018-09-29T05:57:21.182Z,102866.16
2018-09-29T05:59:49.302Z,102868.65
2018-09-29T06:02:17.425Z,102865.91
2018-09-29T06:04:45.493Z,102859.89
2018-09-29T06:07:13.643Z,102852.75
2018-09-29T06:09:41.650Z,102846.70
2018-09-29T06:12:09.740Z,102844.52
2018-09-29T06:14:37.810Z,102839.30
2018-09-29T06:17:05.865Z,102837.38
2018-09-29T06:19:33.960Z,102835.17
2018-09-29T06:22:02.021Z,102827.20
2018-09-29T06:24:30.093Z,102826.95
2018-09-29T06:26:58.145Z,102825.03
2018-09-29T06:29:26.221Z,102825.03
2018-09-29T06:31:54.274Z,102827.79
2018-09-29T06:34:23.449Z,102831.92
2018-09-29T06:36:51.490Z,102828.61
2018-09-29T06:39:19.513Z,102826.67
2018-09-29T06:41:47.619Z,102832.22
2018-09-29T06:44:15.677Z,102831.40
2018-09-29T06:46:43.745Z,102827.23
2018-09-29T06:49:11.819Z,102828.88
2018-09-29T06:51:39.889Z,102824.75
2018-09-29T06:54:07.943Z,102821.94
2018-09-29T06:56:35.999Z,102812.23
2018-09-29T06:59:04.055Z,102813.53
2018-09-29T07:01:32.125Z,102812.53
2018-09-29T07:04:00.243Z,102814.75
2018-09-29T07:06:28.312Z,102811.64
2018-09-29T07:08:56.478Z,102811.09
2018-09-29T07:11:24.564Z,102813.63
2018-09-29T07:13:52.617Z,102821.30
2018-09-29T07:16:20.693Z,102826.38
2018-09-29T07:18:48.769Z,102826.56
2018-09-29T07:21:16.837Z,102832.12
2018-09-29T07:23:44.885Z,102834.98
2018-09-29T07:26:12.979Z,102834.81
2018-09-29T07:28:41.040Z,102839.17
2018-09-29T07:31:09.109Z,102844.63
2018-09-29T07:33:37.181Z,102839.08
2018-09-29T07:36:05.254Z,102845.67
2018-09-29T07:38:33.306Z,102848.33
2018-09-29T07:41:01.402Z,102844.88
2018-09-29T07:43:29.477Z,102846.70
2018-09-29T07:45:57.617Z,102849.02
2018-09-29T07:48:25.716Z,102847.50
2018-09-29T07:50:53.773Z,102850.08
2018-09-29T07:53:21.830Z,102852.08
2018-09-29T07:55:49.960Z,102856.55
2018-09-29T07:58:17.997Z,102865.20
2018-09-29T08:00:46.085Z,102867.20
2018-09-29T08:03:14.195Z,102874.14
2018-09-29T08:05:42.269Z,102875.77
2018-09-29T08:08:10.334Z,102872.14
2018-09-29T08:10:39.023Z,102882.13
2018-09-29T08:13:07.535Z,102871.25
2018-09-29T08:15:36.121Z,102869.23
2018-09-29T08:18:05.152Z,102865.48
2018-09-29T08:20:34.116Z,102863.94
2018-09-29T08:23:02.607Z,102856.05
2018-09-29T08:25:31.171Z,102857.34
2018-09-29T08:27:59.851Z,102858.67
2018-09-29T08:30:28.518Z,102853.33
2018-09-29T08:32:57.129Z,102862.40
2018-09-29T08:35:25.780Z,102866.71
2018-09-29T08:37:54.395Z,102868.84
2018-09-29T08:40:22.829Z,102873.19
2018-09-29T08:42:51.217Z,102868.98
2018-09-29T08:45:19.797Z,102858.94
2018-09-29T08:47:48.576Z,102855.95
2018-09-29T08:50:16.665Z,102856.79
2018-09-29T08:52:44.737Z,102851.78
2018-09-29T08:55:12.801Z,102860.61
2018-09-29T08:57:40.872Z,102852.17
2018-09-29T09:00:08.941Z,102845.67
2018-09-29T09:02:37.225Z,102842.78
2018-09-29T09:05:05.294Z,102835.64
2018-09-29T09:07:33.441Z,102830.45
2018-09-29T09:10:01.523Z,102828.70
2018-09-29T09:12:29.608Z,102826.09
2018-09-29T09:14:57.678Z,102822.34
2018-09-29T09:17:25.756Z,102827.70
2018-09-29T09:19:53.818Z,102827.86
2018-09-29T09:22:21.902Z,102819.66
2018-09-29T09:24:49.965Z,102823.98
2018-09-29T09:27:18.047Z,102824.55
2018-09-29T09:29:46.163Z,102812.86
2018-09-29T09:32:14.239Z,102814.91
2018-09-29T09:34:42.315Z,102820.26
2018-09-29T09:37:10.413Z,102820.13
2018-09-29T09:39:38.471Z,102824.05
2018-09-29T09:42:06.554Z,102820.02
2018-09-29T09:44:34.609Z,102817.73
2018-09-29T09:47:02.706Z,102823.28
2018-09-29T09:49:30.847Z,102813.13
2018-09-29T09:51:58.864Z,102814.94
2018-09-29T09:54:26.924Z,102815.05
2018-09-29T09:56:54.992Z,102806.48
2018-09-29T09:59:23.053Z,102808.25
2018-09-29T10:01:56.722Z,102804.52
2018-09-29T10:04:24.921Z,102795.25
2018-09-29T10:06:53.086Z,102801.05
2018-09-29T10:09:21.153Z,102799.17
2018-09-29T10:11:49.235Z,102791.66
2018-09-29T10:14:17.317Z,102790.41
2018-09-29T10:16:45.393Z,102788.29
2018-09-29T10:19:21.671Z,102781.38
2018-09-29T10:21:49.747Z,102777.11
2018-09-29T10:24:17.832Z,102777.77
2018-09-29T10:26:45.957Z,102770.34
2018-09-29T10:29:14.030Z,102760.39
2018-09-29T10:31:42.103Z,102765.65
2018-09-29T10:34:10.202Z,102766.30
2018-09-29T10:36:38.308Z,102761.72
2018-09-29T10:39:08.614Z,102762.04
2018-09-29T10:41:36.693Z,102760.98
2018-09-29T10:44:04.812Z,102761.08
2018-09-29T10:46:32.853Z,102758.86
2018-09-29T10:49:00.965Z,102758.71
2018-09-29T10:51:29.029Z,102759.52
2018-09-29T10:53:57.105Z,102761.52
2018-09-29T10:56:25.184Z,102753.49
2018-09-29T10:58:53.324Z,102756.80
2018-09-29T11:01:21.409Z,102757.20
2018-09-29T11:03:49.524Z,102741.31
2018-09-29T11:06:17.597Z,102740.03
2018-09-29T11:08:45.698Z,102741.42
2018-09-29T11:11:14.103Z,102740.48
2018-09-29T11:13:42.212Z,102734.28
2018-09-29T11:16:10.286Z,102725.63
2018-09-29T11:18:38.430Z,102722.20
2018-09-29T11:21:06.514Z,102726.19
2018-09-29T11:23:34.602Z,102721.42
2018-09-29T11:26:02.665Z,102721.51
2018-09-29T11:28:30.776Z,102719.77
2018-09-29T11:30:58.845Z,102710.83
2018-09-29T11:33:27.029Z,102713.95
2018-09-29T11:35:55.111Z,102706.90
2018-09-29T11:38:23.198Z,102704.55
2018-09-29T11:40:51.275Z,102702.44
2018-09-29T11:43:19.377Z,102697.16
2018-09-29T11:45:47.828Z,102692.86
2018-09-29T11:48:16.344Z,102692.30
2018-09-29T11:50:44.910Z,102689.80
2018-09-29T11:53:13.504Z,102681.39
2018-09-29T11:55:43.218Z,102679.39
2018-09-29T11:58:11.317Z,102680.35
2018-09-29T12:00:39.429Z,102674.69
2018-09-29T12:03:07.549Z,102670.80
2018-09-29T12:05:35.657Z,102679.08
2018-09-29T12:08:03.827Z,102674.84
2018-09-29T12:10:33.570Z,102666.95
2018-09-29T12:13:02.196Z,102667.08
2018-09-29T12:15:30.674Z,102662.94
2018-09-29T12:17:59.471Z,102657.17
2018-09-29T12:20:28.106Z,102654.20
2018-09-29T12:22:56.690Z,102651.25
2018-09-29T12:25:25.700Z,102640.09
2018-09-29T12:27:54.564Z,102635.38
2018-09-29T12:30:23.071Z,102631.71
2018-09-29T12:32:52.423Z,102632.52
2018-09-29T12:35:20.970Z,102627.61
2018-09-29T12:37:49.781Z,102622.93
2018-09-29T12:40:18.376Z,102621.05
2018-09-29T12:42:46.458Z,102610.66
2018-09-29T12:45:14.577Z,102610.25
2018-09-29T12:47:42.784Z,102609.67
2018-09-29T12:50:10.839Z,102605.81
2018-09-29T12:52:38.885Z,102606.22
2018-09-29T12:55:06.972Z,102597.62
2018-09-29T12:57:35.037Z,102599.16
2018-09-29T13:00:03.142Z,102593.47
2018-09-29T13:02:31.246Z,102593.11
2018-09-29T13:04:59.347Z,102594.81
2018-09-29T13:07:27.410Z,102586.59
2018-09-29T13:09:55.489Z,102582.28
2018-09-29T13:12:23.562Z,102578.61
2018-09-29T13:14:51.653Z,102574.38
2018-09-29T13:17:19.725Z,102577.73
2018-09-29T13:19:47.812Z,102578.34
2018-09-29T13:22:15.878Z,102571.92
2018-09-29T13:24:43.959Z,102566.19
2018-09-29T13:27:12.034Z,102559.29
2018-09-29T13:29:40.218Z,102556.67
2018-09-29T13:32:08.222Z,102560.87
2018-09-29T13:34:36.422Z,102554.57
2018-09-29T13:37:04.521Z,102554.66
2018-09-29T13:39:32.625Z,102554.62
2018-09-29T13:42:00.837Z,102550.03
2018-09-29T13:44:29.118Z,102550.72
2018-09-29T13:46:57.248Z,102543.56
2018-09-29T13:49:25.417Z,102543.56
2018-09-29T13:51:53.557Z,102539.48
2018-09-29T13:54:21.645Z,102531.54
2018-09-29T13:56:49.754Z,102533.20
2018-09-29T13:59:17.931Z,102529.39
2018-09-29T14:01:46.022Z,102536.52
2018-09-29T14:04:14.114Z,102524.23
2018-09-29T14:06:42.193Z,102523.23
2018-09-29T14:09:10.862Z,102527.86
2018-09-29T14:11:38.946Z,102525.48
2018-09-29T14:14:07.827Z,102516.50
2018-09-29T14:16:35.930Z,102507.41
2018-09-29T14:19:04.198Z,102496.24
2018-09-29T14:21:32.329Z,102492.34
2018-09-29T14:24:00.401Z,102498.49
2018-09-29T14:26:28.482Z,102486.22
2018-09-29T14:28:56.566Z,102486.42
2018-09-29T14:31:24.674Z,102488.09
2018-09-29T14:33:52.761Z,102482.45
2018-09-29T14:36:20.853Z,102470.80
2018-09-29T14:38:49.105Z,102473.11
2018-09-29T14:41:17.184Z,102471.67
2018-09-29T14:43:45.369Z,102466.20
2018-09-29T14:46:13.442Z,102458.61
2018-09-29T14:48:41.551Z,102455.55
2018-09-29T14:51:09.622Z,102446.66
2018-09-29T14:53:37.693Z,102435.50
2018-09-29T14:56:05.774Z,102440.08
2018-09-29T14:58:33.850Z,102443.09
2018-09-29T15:01:01.956Z,102434.55
2018-09-29T15:03:30.025Z,102432.09
2018-09-29T15:05:58.134Z,102428.16
2018-09-29T15:08:26.330Z,102426.06
2018-09-29T15:10:54.487Z,102422.34
2018-09-29T15:13:22.753Z,102419.83
2018-09-29T15:15:51.083Z,102423.42
2018-09-29T15:18:19.189Z,102414.93
2018-09-29T15:20:47.273Z,102417.03
2018-09-29T15:23:15.377Z,102417.55
2018-09-29T15:25:43.465Z,102411.28
2018-09-29T15:28:11.673Z,102418.02
2018-09-29T15:30:39.779Z,102406.52
2018-09-29T15:33:07.906Z,102412.98
2018-09-29T15:35:36.060Z,102410.97
2018-09-29T15:38:04.173Z,102403.03
2018-09-29T15:40:32.242Z,102407.79
2018-09-29T15:43:00.538Z,102402.20
2018-09-29T15:45:28.465Z,102401.89
2018-09-29T15:47:56.593Z,102399.22
2018-09-29T15:50:24.711Z,102398.53
2018-09-29T15:52:52.971Z,102397.48
2018-09-29T15:55:21.208Z,102399.66
2018-09-29T15:57:49.240Z,102397.84
2018-09-29T16:00:17.344Z,102404.39
2018-09-29T16:02:45.441Z,102396.09
2018-09-29T16:05:13.515Z,102401.62
2018-09-29T16:07:41.674Z,102392.23
2018-09-29T16:10:09.822Z,102393.89
2018-09-29T16:12:38.001Z,102398.95
2018-09-29T16:15:06.282Z,102391.11
2018-09-29T16:17:34.349Z,102398.18
2018-09-29T16:20:02.427Z,102393.50
2018-09-29T16:22:30.509Z,102393.67
2018-09-29T16:24:59.617Z,102390.40
2018-09-29T16:27:27.689Z,102383.54
2018-09-29T16:29:55.855Z,102387.81
2018-09-29T16:32:23.966Z,102378.21
2018-09-29T16:34:52.062Z,102380.94
2018-09-29T16:37:20.155Z,102383.33
2018-09-29T16:39:48.246Z,102387.14
2018-09-29T16:42:16.387Z,102384.85
2018-09-29T16:44:44.483Z,102382.22
2018-09-29T16:47:12.578Z,102376.80
2018-09-29T16:49:40.705Z,102380.02
2018-09-29T16:52:08.790Z,102379.37
2018-09-29T16:54:36.894Z,102377.91
2018-09-29T16:57:04.995Z,102377.84
2018-09-29T16:59:33.082Z,102378.48
2018-09-29T17:02:01.162Z,102380.22
2018-09-29T17:04:29.316Z,102380.29
2018-09-29T17:06:57.433Z,102377.02
2018-09-29T17:09:25.497Z,102370.80
2018-09-29T17:11:54.404Z,102368.98
2018-09-29T17:14:22.481Z,102369.97
2018-09-29T17:16:50.557Z,102368.76
2018-09-29T17:19:18.729Z,102370.30
2018-09-29T17:21:46.835Z,102366.87
2018-09-29T17:24:14.893Z,102375.41
2018-09-29T17:26:42.965Z,102368.99
2018-09-29T17:29:11.051Z,102374.31
2018-09-29T17:31:39.163Z,102376.85
2018-09-29T17:34:07.227Z,102377.66
2018-09-29T17:36:35.297Z,102372.59
2018-09-29T17:39:03.882Z,102374.02
2018-09-29T17:41:31.957Z,102376.81
2018-09-29T17:44:00.022Z,102370.71
2018-09-29T17:46:28.095Z,102364.28
2018-09-29T17:48:56.253Z,102368.11
2018-09-29T17:51:24.398Z,102363.06
2018-09-29T17:53:52.441Z,102359.95
2018-09-29T17:56:20.522Z,102361.85
2018-09-29T17:58:48.805Z,102357.00
2018-09-29T18:01:16.912Z,102359.11
2018-09-29T18:03:44.985Z,102364.23
2018-09-29T18:06:13.056Z,102359.37
2018-09-29T18:08:41.178Z,102359.50
2018-09-29T18:11:09.272Z,102363.88
2018-09-29T18:13:37.441Z,102361.77
2018-09-29T18:16:05.449Z,102361.65
2018-09-29T18:18:33.530Z,102362.32
2018-09-29T18:21:01.593Z,102361.64
2018-09-29T18:23:29.698Z,102357.11
2018-09-29T18:25:57.762Z,102356.15
2018-09-29T18:28:26.010Z,102346.86
2018-09-29T18:30:54.069Z,102347.29
2018-09-29T18:33:22.159Z,102347.98
2018-09-29T18:35:50.324Z,102349.00
2018-09-29T18:38:18.321Z,102341.66
2018-09-29T18:40:46.386Z,102338.75
2018-09-29T18:43:14.473Z,102339.76
2018-09-29T18:45:42.577Z,102333.80
2018-09-29T18:48:10.650Z,102330.64
2018-09-29T18:50:38.725Z,102336.56
2018-09-29T18:53:06.793Z,102333.05
2018-09-29T18:55:34.872Z,102331.23
2018-09-29T18:58:02.951Z,102328.55
2018-09-29T19:00:31.054Z,102318.99
2018-09-29T19:02:59.309Z,102313.61
2018-09-29T19:05:27.397Z,102316.76
2018-09-29T19:07:55.529Z,102309.88
2018-09-29T19:10:23.614Z,102302.92
2018-09-29T19:12:51.753Z,102299.38
2018-09-29T19:15:19.809Z,102294.73
2018-09-29T19:17:47.897Z,102296.61
2018-09-29T19:20:16.005Z,102294.05
2018-09-29T19:22:44.078Z,102285.78
2018-09-29T19:25:12.185Z,102284.95
2018-09-29T19:27:40.286Z,102285.19
2018-09-29T19:30:08.397Z,102290.63
2018-09-29T19:32:36.489Z,102296.86
2018-09-29T19:35:04.601Z,102287.09
2018-09-29T19:37:32.695Z,102288.19
2018-09-29T19:40:00.782Z,102292.39
2018-09-29T19:42:28.858Z,102295.77
2018-09-29T19:44:56.942Z,102300.43
2018-09-29T19:47:25.130Z,102293.86
2018-09-29T19:49:53.221Z,102296.60
2018-09-29T19:52:21.293Z,102293.69
2018-09-29T19:54:49.369Z,102293.20
2018-09-29T19:57:17.441Z,102295.11
2018-09-29T19:59:45.534Z,102289.31
2018-09-29T20:02:13.634Z,102283.80
2018-09-29T20:04:41.753Z,102287.53
2018-09-29T20:07:09.834Z,102280.44
2018-09-29T20:09:37.935Z,102277.72
2018-09-29T20:12:06.025Z,102285.19
2018-09-29T20:14:34.118Z,102279.09
2018-09-29T20:17:02.196Z,102273.77
2018-09-29T20:19:30.272Z,102273.64
2018-09-29T20:21:58.373Z,102269.95
2018-09-29T20:24:26.528Z,102264.23
2018-09-29T20:26:54.573Z,102263.52
2018-09-29T20:29:22.660Z,102260.51
2018-09-29T20:31:50.802Z,102256.70
2018-09-29T20:34:18.915Z,102258.16
2018-09-29T20:36:47.002Z,102262.34
2018-09-29T20:39:15.122Z,102254.94
2018-09-29T20:41:43.521Z,102256.63
2018-09-29T20:44:11.809Z,102251.13
2018-09-29T20:46:39.893Z,102243.45
2018-09-29T20:49:08.661Z,102236.30
2018-09-29T20:51:37.065Z,102236.91
2018-09-29T20:54:05.437Z,102234.17
2018-09-29T20:56:33.531Z,102234.80
2018-09-29T20:59:01.610Z,102231.51
2018-09-29T21:01:29.709Z,102223.80
2018-09-29T21:03:57.818Z,102220.27
2018-09-29T21:06:26.165Z,102223.89
2018-09-29T21:08:54.250Z,102219.23
2018-09-29T21:11:22.326Z,102210.69
2018-09-29T21:13:50.471Z,102209.61
2018-09-29T21:16:18.550Z,102212.41
2018-09-29T21:18:46.618Z,102208.57
2018-09-29T21:21:14.714Z,102213.02
2018-09-29T21:23:42.793Z,102204.76
2018-09-29T21:26:10.924Z,102205.90
2018-09-29T21:28:39.009Z,102201.23
2018-09-29T21:31:07.097Z,102201.81
2018-09-29T21:33:35.185Z,102194.69
2018-09-29T21:36:03.281Z,102186.70
2018-09-29T21:38:31.390Z,102191.95
2018-09-29T21:40:59.461Z,102194.75
2018-09-29T21:43:27.538Z,102181.92
2018-09-29T21:45:55.633Z,102174.49
2018-09-29T21:48:23.701Z,102165.34
2018-09-29T21:50:51.768Z,102156.80
2018-09-29T21:53:20.091Z,102155.63
2018-09-29T21:55:48.166Z,102146.92
2018-09-29T21:58:16.466Z,102143.61
2018-09-29T22:00:45.465Z,102138.84
2018-09-29T22:03:14.854Z,102139.39
2018-09-29T22:05:43.233Z,102136.00
2018-09-29T22:08:11.496Z,102133.60
2018-09-29T22:10:39.568Z,102134.61
2018-09-29T22:13:07.662Z,102136.75
2018-09-29T22:15:35.753Z,102131.47
2018-09-29T22:18:03.825Z,102129.48
2018-09-29T22:20:31.881Z,102121.09
2018-09-29T22:22:59.941Z,102118.88
2018-09-29T22:25:28.009Z,102115.95
2018-09-29T22:27:56.070Z,102117.58
2018-09-29T22:30:24.153Z,102116.44
2018-09-29T22:32:52.308Z,102111.77
2018-09-29T22:35:20.385Z,102109.37
2018-09-29T22:37:48.452Z,102104.20
2018-09-29T22:40:16.517Z,102105.77
2018-09-29T22:42:44.582Z,102095.98
2018-09-29T22:45:12.669Z,102099.95
2018-09-29T22:47:40.729Z,102096.45
2018-09-29T22:50:08.798Z,102093.53
2018-09-29T22:52:36.877Z,102092.98
2018-09-29T22:55:04.940Z,102085.03
2018-09-29T22:57:33.039Z,102078.89
2018-09-29T23:00:01.081Z,102081.25
2018-09-29T23:02:29.161Z,102080.13
2018-09-29T23:04:57.230Z,102076.36
2018-09-29T23:07:25.321Z,102071.00
2018-09-29T23:09:53.373Z,102071.23
2018-09-29T23:12:21.442Z,102066.19
2018-09-29T23:14:49.497Z,102061.95
2018-09-29T23:17:17.568Z,102061.72
2018-09-29T23:19:45.626Z,102061.90
2018-09-29T23:22:13.690Z,102058.67
2018-09-29T23:24:41.785Z,102054.23
2018-09-29T23:27:09.850Z,102058.80
2018-09-29T23:29:37.916Z,102050.26
2018-09-29T23:32:06.009Z,102046.11
2018-09-29T23:34:34.099Z,102052.70
2018-09-29T23:37:02.166Z,102048.36
2018-09-29T23:39:30.228Z,102047.91
2018-09-29T23:41:58.314Z,102053.27
2018-09-29T23:44:26.451Z,102043.75
2018-09-29T23:46:54.633Z,102051.27
2018-09-29T23:49:22.690Z,102049.19
2018-09-29T23:51:50.765Z,102043.19
2018-09-29T23:54:18.822Z,102039.91
2018-09-29T23:56:46.908Z,102035.47
2018-09-29T23:59:14.958Z,102038.60
